Time;durP1;ratioP1;P1;durP2;ratioP2;P2;SDS_P1;SDS_P2;PMS_P1;PMS_P2;Temp;Humidity;BMP_temperature;BMP_pressure;BME280_temperature;BME280_humidity;BME280_pressure;Samples;Min_cycle;Max_cycle;Signal;HPM_P1;HPM_P2
2023/08/11 00:00:09;;;;;;;4.50;1.90;;;18.60;99.90;;;;;;4994101;28;20178;-81
2023/08/11 00:02:38;;;;;;;3.33;2.08;;;18.60;99.90;;;;;;4977593;28;20098;-81
2023/08/11 00:05:04;;;;;;;6.38;2.58;;;18.50;99.90;;;;;;4993945;28;20109;-81
2023/08/11 00:07:30;;;;;;;4.35;2.08;;;18.50;99.90;;;;;;4977354;28;20030;-81
2023/08/11 00:09:55;;;;;;;3.80;1.80;;;18.40;99.90;;;;;;4993687;28;20106;-81
2023/08/11 00:12:21;;;;;;;2.63;2.08;;;18.40;99.90;;;;;;4994419;28;20022;-81
2023/08/11 00:14:47;;;;;;;7.45;1.83;;;18.30;99.90;;;;;;4976694;28;20030;-78
2023/08/11 00:17:13;;;;;;;6.75;2.22;;;18.30;99.90;;;;;;4979120;28;20023;-81
2023/08/11 00:19:38;;;;;;;3.78;2.00;;;18.30;99.90;;;;;;4976555;28;20034;-81
2023/08/11 00:22:06;;;;;;;4.65;2.40;;;18.30;99.90;;;;;;4994081;28;20057;-81
2023/08/11 00:24:33;;;;;;;2.13;1.90;;;18.30;99.90;;;;;;4993435;28;20526;-83
2023/08/11 00:26:58;;;;;;;3.08;2.13;;;18.30;99.90;;;;;;4985016;28;20380;-78
2023/08/11 00:29:24;;;;;;;3.08;2.13;;;18.20;99.90;;;;;;4978212;28;20472;-81
2023/08/11 00:31:49;;;;;;;5.90;1.92;;;18.20;99.90;;;;;;4977493;28;20027;-79
2023/08/11 00:34:15;;;;;;;3.35;2.03;;;18.20;99.90;;;;;;4977858;28;20026;-79
2023/08/11 00:36:41;;;;;;;4.93;2.10;;;18.20;99.90;;;;;;4992284;28;20046;-79
2023/08/11 00:39:07;;;;;;;1.98;1.77;;;18.10;99.90;;;;;;4997771;28;20150;-81
2023/08/11 00:41:33;;;;;;;4.00;1.92;;;18.10;99.90;;;;;;4997092;28;20038;-78
2023/08/11 00:43:58;;;;;;;4.30;1.95;;;18.00;99.90;;;;;;4997055;28;20480;-78
2023/08/11 00:46:24;;;;;;;5.03;2.40;;;18.10;99.90;;;;;;4996460;28;20030;-78
2023/08/11 00:48:53;;;;;;;7.25;1.95;;;18.00;99.90;;;;;;4994646;28;20035;-78
2023/08/11 00:51:22;;;;;;;2.67;2.10;;;18.00;99.90;;;;;;4997266;28;20026;-78
2023/08/11 00:53:49;;;;;;;4.00;2.10;;;18.00;99.90;;;;;;4996998;28;20506;-76
2023/08/11 00:56:16;;;;;;;7.18;2.10;;;18.00;99.90;;;;;;4997253;28;20040;-78
2023/08/11 00:58:43;;;;;;;5.43;2.17;;;18.10;99.90;;;;;;4979762;28;20034;-79
2023/08/11 01:01:09;;;;;;;2.92;2.00;;;18.10;99.90;;;;;;4979960;28;20467;-79
2023/08/11 01:03:35;;;;;;;3.95;2.50;;;18.10;99.90;;;;;;4980207;28;20026;-78
2023/08/11 01:06:31;;;;;;;6.28;2.30;;;18.10;99.90;;;;;;4996651;28;20046;-78
2023/08/11 01:09:15;;;;;;;5.53;2.13;;;18.10;99.90;;;;;;4997046;28;20034;-78
2023/08/11 01:12:06;;;;;;;6.68;2.40;;;18.10;99.90;;;;;;4997212;28;20031;-78
2023/08/11 01:14:52;;;;;;;;;;;18.00;99.90;;;;;;4980108;28;20111;-77
2023/08/11 01:17:18;;;;;;;3.00;2.25;;;18.00;99.90;;;;;;4996021;28;19906;-78
2023/08/11 01:19:45;;;;;;;7.38;2.60;;;18.00;99.90;;;;;;4980025;28;20472;-78
2023/08/11 01:22:15;;;;;;;5.03;2.53;;;18.00;99.90;;;;;;4995415;28;20026;-78
2023/08/11 01:24:42;;;;;;;3.20;2.13;;;18.00;99.90;;;;;;4997156;28;20031;-79
2023/08/11 01:27:08;;;;;;;5.93;2.28;;;18.00;99.90;;;;;;4979031;28;20139;-78
2023/08/11 01:29:34;;;;;;;6.68;2.30;;;17.90;99.90;;;;;;4979980;28;20066;-79
2023/08/11 01:32:00;;;;;;;5.00;2.30;;;18.00;99.90;;;;;;4995128;28;20033;-78
2023/08/11 01:34:25;;;;;;;3.50;2.50;;;17.90;99.90;;;;;;4992668;28;20019;-79
2023/08/11 01:37:03;;;;;;;5.53;2.50;;;17.90;99.90;;;;;;4974625;28;20050;-75
2023/08/11 01:39:30;;;;;;;6.80;2.63;;;17.80;99.90;;;;;;4976325;28;20090;-78
2023/08/11 01:41:56;;;;;;;4.07;2.20;;;17.80;99.90;;;;;;4969276;28;20076;-78
2023/08/11 01:44:22;;;;;;;4.32;2.53;;;17.70;99.90;;;;;;4978776;28;20081;-77
2023/08/11 01:46:50;;;;;;;3.40;2.10;;;17.70;99.90;;;;;;4979124;28;20069;-77
2023/08/11 01:49:16;;;;;;;2.80;2.35;;;17.60;99.90;;;;;;4978903;28;20114;-77
2023/08/11 01:51:42;;;;;;;3.72;2.40;;;17.60;99.90;;;;;;4995290;28;20077;-77
2023/08/11 01:54:08;;;;;;;3.65;2.10;;;17.60;99.90;;;;;;4978350;28;20392;-77
2023/08/11 01:56:36;;;;;;;4.07;2.20;;;17.50;99.90;;;;;;4995396;28;20035;-78
2023/08/11 01:59:11;;;;;;;4.47;2.80;;;17.60;99.90;;;;;;4994668;28;20033;-77
2023/08/11 02:01:38;;;;;;;6.45;2.33;;;17.50;99.90;;;;;;4996526;28;20026;-78
2023/08/11 02:04:08;;;;;;;2.88;2.20;;;17.60;99.90;;;;;;4982156;28;20026;-77
2023/08/11 02:06:35;;;;;;;4.45;2.15;;;17.60;99.90;;;;;;4995151;28;20455;-78
2023/08/11 02:09:04;;;;;;;6.28;2.55;;;17.60;99.90;;;;;;4978263;28;20049;-77
2023/08/11 02:11:30;;;;;;;3.90;2.40;;;17.60;99.90;;;;;;4978848;28;20072;-77
2023/08/11 02:13:55;;;;;;;6.97;2.85;;;17.50;99.90;;;;;;4977654;28;20423;-77
2023/08/11 02:16:21;;;;;;;4.00;2.38;;;17.50;99.90;;;;;;4994479;28;20044;-77
2023/08/11 02:18:46;;;;;;;3.35;2.38;;;17.50;99.90;;;;;;4995922;28;20076;-77
2023/08/11 02:21:12;;;;;;;6.35;2.45;;;17.40;99.90;;;;;;4992224;28;20549;-78
2023/08/11 02:23:38;;;;;;;5.22;2.15;;;17.40;99.90;;;;;;4994685;28;20022;-77
2023/08/11 02:26:03;;;;;;;6.47;2.67;;;17.30;99.90;;;;;;4994225;28;20030;-78
2023/08/11 02:28:29;;;;;;;5.20;2.70;;;17.30;99.90;;;;;;4995862;28;20027;-77
2023/08/11 02:30:54;;;;;;;3.97;2.53;;;17.30;99.90;;;;;;4995754;28;20141;-77
2023/08/11 02:33:22;;;;;;;3.30;2.35;;;17.30;99.90;;;;;;4995670;28;20064;-77
2023/08/11 02:35:47;;;;;;;5.93;2.72;;;17.30;99.90;;;;;;4978291;28;20038;-78
2023/08/11 02:38:16;;;;;;;4.70;2.47;;;17.20;99.90;;;;;;4994024;28;20587;-77
2023/08/11 02:40:41;;;;;;;3.42;2.70;;;17.20;99.90;;;;;;4977060;28;20114;-77
2023/08/11 02:43:07;;;;;;;3.53;2.50;;;17.20;99.90;;;;;;4994813;28;20054;-77
2023/08/11 02:45:33;;;;;;;3.88;2.60;;;17.20;99.90;;;;;;4996216;28;20144;-78
2023/08/11 02:47:58;;;;;;;7.10;2.70;;;17.10;99.90;;;;;;4977379;28;20464;-76
2023/08/11 02:50:24;;;;;;;4.32;2.58;;;17.00;99.90;;;;;;4994493;28;20023;-77
2023/08/11 02:52:49;;;;;;;3.55;2.25;;;17.00;99.90;;;;;;4995222;28;20026;-77
2023/08/11 02:55:15;;;;;;;4.25;2.45;;;17.00;99.90;;;;;;4995156;28;20109;-78
2023/08/11 02:57:41;;;;;;;8.48;2.67;;;17.00;99.90;;;;;;4978124;28;20475;-77
2023/08/11 03:00:13;;;;;;;3.63;2.30;;;17.00;99.90;;;;;;4993814;28;20027;-77
2023/08/11 03:02:39;;;;;;;4.47;2.42;;;17.00;99.90;;;;;;4994304;28;20027;-77
2023/08/11 03:05:07;;;;;;;5.10;2.33;;;17.00;99.90;;;;;;4994874;28;20041;-77
2023/08/11 03:07:34;;;;;;;3.40;2.55;;;17.00;99.90;;;;;;4995370;28;20093;-78
2023/08/11 03:10:00;;;;;;;2.72;2.00;;;17.10;99.90;;;;;;4993674;28;20467;-77
2023/08/11 03:12:29;;;;;;;4.10;2.38;;;17.10;99.90;;;;;;4994967;28;20029;-77
2023/08/11 03:14:55;;;;;;;3.78;2.38;;;17.00;99.90;;;;;;4995122;28;20030;-77
2023/08/11 03:17:21;;;;;;;4.47;2.47;;;17.00;99.90;;;;;;4977207;28;20088;-77
2023/08/11 03:19:47;;;;;;;3.53;2.38;;;17.00;99.90;;;;;;4994023;28;20062;-78
2023/08/11 03:22:13;;;;;;;5.70;2.35;;;17.00;99.90;;;;;;4977339;28;20053;-77
2023/08/11 03:24:39;;;;;;;7.88;2.50;;;17.00;99.90;;;;;;4994891;28;20030;-77
2023/08/11 03:27:06;;;;;;;5.07;2.45;;;16.90;99.90;;;;;;4977096;28;20380;-77
2023/08/11 03:29:31;;;;;;;6.25;2.50;;;16.90;99.90;;;;;;4994423;28;20084;-78
2023/08/11 03:31:57;;;;;;;3.50;2.08;;;16.90;99.90;;;;;;4977428;28;20121;-78
2023/08/11 03:34:23;;;;;;;3.42;2.38;;;16.80;99.90;;;;;;4994833;28;20026;-78
2023/08/11 03:36:48;;;;;;;5.88;2.58;;;16.80;99.90;;;;;;4993697;28;20042;-77
2023/08/11 03:39:14;;;;;;;6.13;2.45;;;16.80;99.90;;;;;;4994361;28;20026;-77
2023/08/11 03:41:39;;;;;;;4.50;2.22;;;16.70;99.90;;;;;;4993584;28;20030;-77
2023/08/11 03:44:05;;;;;;;3.15;2.30;;;16.70;99.90;;;;;;4993816;28;20101;-77
2023/08/11 03:46:31;;;;;;;5.78;2.60;;;16.60;99.90;;;;;;4993572;28;20044;-78
2023/08/11 03:48:57;;;;;;;3.45;2.40;;;16.60;99.90;;;;;;4994410;28;20022;-78
2023/08/11 03:51:22;;;;;;;5.35;2.80;;;16.60;99.90;;;;;;4977003;28;20030;-77
2023/08/11 03:53:48;;;;;;;4.22;2.42;;;16.60;99.90;;;;;;4977666;28;20125;-78
2023/08/11 03:56:13;;;;;;;5.97;2.90;;;16.60;99.90;;;;;;4973486;28;20031;-77
2023/08/11 03:58:39;;;;;;;4.60;2.67;;;16.60;99.90;;;;;;4977720;28;20026;-78
2023/08/11 04:01:05;;;;;;;6.43;2.50;;;16.60;99.90;;;;;;4975795;28;20031;-77
2023/08/11 04:03:31;;;;;;;4.30;2.58;;;16.70;99.90;;;;;;4994197;28;20490;-77
2023/08/11 04:06:00;;;;;;;5.38;2.72;;;16.70;99.90;;;;;;4994462;28;20376;-78
2023/08/11 04:08:27;;;;;;;6.80;2.47;;;16.70;99.90;;;;;;4993628;28;20375;-77
2023/08/11 04:10:53;;;;;;;4.88;2.53;;;16.80;99.90;;;;;;4993968;28;20033;-77
2023/08/11 04:13:19;;;;;;;3.83;2.70;;;16.70;99.90;;;;;;4993865;28;20026;-78
2023/08/11 04:15:47;;;;;;;8.93;2.72;;;16.50;99.90;;;;;;4994425;28;20045;-78
2023/08/11 04:18:13;;;;;;;3.70;2.70;;;16.50;99.90;;;;;;4993789;28;20030;-77
2023/08/11 04:20:39;;;;;;;3.08;2.65;;;16.50;99.90;;;;;;4994122;28;20036;-77
2023/08/11 04:23:05;;;;;;;4.63;2.80;;;16.50;99.90;;;;;;4976636;28;20027;-77
2023/08/11 04:25:31;;;;;;;2.78;2.40;;;16.50;99.90;;;;;;4994268;28;20369;-77
2023/08/11 04:27:56;;;;;;;5.00;2.55;;;16.60;99.90;;;;;;4977204;28;20049;-77
2023/08/11 04:30:22;;;;;;;4.68;2.58;;;16.40;99.90;;;;;;4993602;28;20050;-77
2023/08/11 04:32:48;;;;;;;4.22;2.47;;;16.40;99.90;;;;;;4993105;28;20081;-77
2023/08/11 04:35:14;;;;;;;6.38;2.40;;;16.40;99.90;;;;;;4992170;28;20038;-77
2023/08/11 04:37:41;;;;;;;5.28;2.72;;;16.40;99.90;;;;;;4973336;28;20114;-77
2023/08/11 04:40:10;;;;;;;4.13;2.50;;;16.40;99.90;;;;;;4973822;28;20110;-77
2023/08/11 04:42:39;;;;;;;4.03;2.75;;;16.50;99.90;;;;;;4974238;28;20104;-77
2023/08/11 04:45:06;;;;;;;4.18;2.70;;;16.50;99.90;;;;;;4968997;28;20055;-77
2023/08/11 04:47:31;;;;;;;4.20;2.85;;;16.60;99.90;;;;;;4955244;29;20067;-77
2023/08/11 04:49:57;;;;;;;4.57;2.53;;;16.50;99.90;;;;;;4978878;28;20038;-77
2023/08/11 04:52:23;;;;;;;7.07;2.90;;;16.50;99.90;;;;;;4972808;28;20027;-77
2023/08/11 04:54:48;;;;;;;5.25;3.08;;;16.50;99.90;;;;;;4973959;28;20026;-77
2023/08/11 04:57:14;;;;;;;5.72;2.90;;;16.60;99.90;;;;;;4973311;28;20524;-77
2023/08/11 04:59:40;;;;;;;3.33;2.45;;;16.60;99.90;;;;;;4985873;28;20023;-77
2023/08/11 05:02:07;;;;;;;5.07;2.50;;;16.60;99.90;;;;;;4973408;28;20022;-77
2023/08/11 05:04:33;;;;;;;4.45;2.65;;;16.70;99.90;;;;;;4989499;28;20031;-77
2023/08/11 05:06:59;;;;;;;3.83;2.70;;;16.70;99.90;;;;;;4973456;28;20043;-77
2023/08/11 05:09:24;;;;;;;4.25;2.92;;;16.80;99.90;;;;;;4972866;28;20053;-77
2023/08/11 05:11:50;;;;;;;4.88;2.58;;;16.80;99.90;;;;;;4975193;28;20058;-77
2023/08/11 05:14:17;;;;;;;5.13;2.67;;;16.80;99.90;;;;;;4977307;28;20460;-77
2023/08/11 05:16:44;;;;;;;8.23;3.10;;;16.70;99.90;;;;;;4992838;28;20141;-77
2023/08/11 05:19:09;;;;;;;5.13;2.60;;;16.70;99.90;;;;;;4992171;28;20538;-77
2023/08/11 05:21:36;;;;;;;5.18;2.72;;;16.80;99.90;;;;;;4993229;28;20026;-77
2023/08/11 05:24:02;;;;;;;5.07;3.03;;;16.80;99.90;;;;;;4977611;28;20026;-77
2023/08/11 05:26:28;;;;;;;3.13;2.25;;;16.80;99.90;;;;;;4977714;28;20030;-77
2023/08/11 05:28:53;;;;;;;2.60;2.22;;;16.80;99.90;;;;;;4977632;28;20358;-77
2023/08/11 05:31:19;;;;;;;6.18;2.85;;;16.80;99.90;;;;;;4976930;28;20098;-77
2023/08/11 05:33:45;;;;;;;4.70;2.67;;;16.80;99.90;;;;;;4992815;28;20369;-76
2023/08/11 05:36:11;;;;;;;3.70;2.70;;;16.80;99.90;;;;;;4991907;28;20035;-77
2023/08/11 05:38:37;;;;;;;5.10;2.70;;;16.70;99.90;;;;;;4977303;28;20062;-77
2023/08/11 05:41:03;;;;;;;4.70;2.65;;;16.80;99.90;;;;;;4992151;28;20019;-77
2023/08/11 05:43:29;;;;;;;5.80;2.80;;;16.80;99.90;;;;;;4978315;28;20464;-77
2023/08/11 05:45:54;;;;;;;4.45;2.67;;;16.90;99.90;;;;;;4979319;28;20066;-78
2023/08/11 05:48:20;;;;;;;2.88;2.28;;;16.80;99.90;;;;;;4995143;28;20404;-77
2023/08/11 05:50:46;;;;;;;5.72;2.63;;;16.90;99.90;;;;;;4975907;28;20058;-78
2023/08/11 05:53:12;;;;;;;5.13;2.40;;;16.80;99.90;;;;;;4992581;28;20030;-77
2023/08/11 05:55:38;;;;;;;3.97;2.45;;;16.90;99.90;;;;;;4978970;28;20035;-77
2023/08/11 05:58:03;;;;;;;4.78;2.47;;;16.90;99.90;;;;;;4979088;28;20033;-78
2023/08/11 06:00:29;;;;;;;5.00;2.60;;;17.00;99.90;;;;;;4995994;28;20022;-78
2023/08/11 06:02:55;;;;;;;5.10;2.55;;;17.00;99.90;;;;;;4994828;28;20037;-78
2023/08/11 06:05:21;;;;;;;4.30;2.90;;;17.10;99.90;;;;;;4978107;28;20121;-77
2023/08/11 06:07:48;;;;;;;6.40;2.88;;;17.10;99.90;;;;;;4995069;28;20118;-77
2023/08/11 06:10:14;;;;;;;4.78;2.70;;;17.20;99.90;;;;;;4977934;28;20030;-76
2023/08/11 06:12:39;;;;;;;5.00;2.65;;;17.10;99.90;;;;;;4978715;28;20118;-78
2023/08/11 06:15:06;;;;;;;3.45;2.30;;;17.20;99.90;;;;;;4978658;28;20121;-77
2023/08/11 06:17:32;;;;;;;4.40;2.83;;;17.20;99.90;;;;;;4995407;28;20031;-77
2023/08/11 06:19:57;;;;;;;6.38;2.45;;;17.30;99.90;;;;;;4978178;28;20033;-76
2023/08/11 06:22:23;;;;;;;4.05;2.88;;;17.20;99.90;;;;;;4994610;28;20097;-76
2023/08/11 06:24:49;;;;;;;6.32;2.92;;;17.30;99.90;;;;;;4994334;28;20026;-76
2023/08/11 06:27:15;;;;;;;5.53;2.65;;;17.40;99.90;;;;;;4995220;28;20031;-76
2023/08/11 06:29:41;;;;;;;5.50;2.85;;;17.40;99.90;;;;;;4994354;28;20476;-77
2023/08/11 06:32:07;;;;;;;3.78;2.50;;;17.40;99.90;;;;;;4995668;28;20018;-76
2023/08/11 06:34:33;;;;;;;3.38;2.47;;;17.40;99.90;;;;;;4995214;28;20464;-77
2023/08/11 06:36:58;;;;;;;5.90;2.70;;;17.40;99.90;;;;;;4995416;28;20053;-77
2023/08/11 06:39:24;;;;;;;3.63;2.65;;;17.50;99.90;;;;;;4976108;28;20023;-77
2023/08/11 06:41:49;;;;;;;6.47;2.50;;;17.60;99.90;;;;;;4995766;28;20037;-77
2023/08/11 06:44:15;;;;;;;6.13;2.70;;;17.60;99.90;;;;;;4993782;28;20038;-78
2023/08/11 06:46:40;;;;;;;4.57;2.70;;;17.60;99.90;;;;;;4994908;28;20093;-78
2023/08/11 06:49:06;;;;;;;3.83;2.60;;;17.70;99.90;;;;;;4995777;28;20376;-78
2023/08/11 06:51:32;;;;;;;5.60;2.67;;;17.80;99.90;;;;;;4978151;28;20031;-78
2023/08/11 06:53:58;;;;;;;5.10;3.20;;;17.80;99.90;;;;;;4994743;28;20027;-78
2023/08/11 06:56:23;;;;;;;3.88;2.97;;;17.80;99.90;;;;;;4977826;28;20038;-78
2023/08/11 06:58:49;;;;;;;7.57;3.13;;;17.90;99.90;;;;;;4994688;28;20023;-77
2023/08/11 07:01:17;;;;;;;7.28;2.70;;;17.90;99.90;;;;;;4974307;28;20023;-77
2023/08/11 07:03:46;;;;;;;6.97;2.97;;;18.00;99.90;;;;;;4974808;28;20030;-77
2023/08/11 07:06:12;;;;;;;7.18;2.63;;;18.10;99.90;;;;;;4975248;28;20096;-77
2023/08/11 07:08:39;;;;;;;4.55;2.75;;;18.10;99.90;;;;;;4975690;28;20494;-77
2023/08/11 07:11:05;;;;;;;3.28;2.60;;;18.10;99.90;;;;;;4977119;28;20037;-78
2023/08/11 07:13:31;;;;;;;3.38;2.40;;;18.20;99.90;;;;;;4974450;28;20577;-79
2023/08/11 07:15:57;;;;;;;4.75;3.60;;;18.20;99.90;;;;;;4975117;28;20486;-77
2023/08/11 07:18:27;;;;;;;5.10;2.92;;;18.30;99.90;;;;;;4975420;28;20098;-77
2023/08/11 07:20:52;;;;;;;5.43;2.72;;;18.40;99.90;;;;;;4974774;28;20031;-77
2023/08/11 07:23:18;;;;;;;5.93;3.10;;;18.40;99.90;;;;;;4970337;28;20472;-78
2023/08/11 07:25:44;;;;;;;6.07;3.45;;;18.50;99.90;;;;;;4977606;28;20468;-78
2023/08/11 07:28:09;;;;;;;6.82;3.30;;;18.60;99.90;;;;;;4984386;28;20118;-78
2023/08/11 07:30:38;;;;;;;5.78;3.28;;;18.70;99.90;;;;;;4985843;28;20037;-77
2023/08/11 07:33:03;;;;;;;5.72;3.70;;;18.70;99.90;;;;;;4990774;28;20029;-78
2023/08/11 07:35:30;;;;;;;5.93;3.72;;;18.90;99.90;;;;;;4988787;28;20038;-77
2023/08/11 07:37:56;;;;;;;7.90;3.90;;;18.90;99.90;;;;;;4964995;28;20039;-78
2023/08/11 07:40:22;;;;;;;4.32;2.90;;;19.00;99.90;;;;;;4982230;28;20537;-78
2023/08/11 07:42:47;;;;;;;9.60;3.38;;;19.00;99.90;;;;;;4988384;28;20038;-77
2023/08/11 07:45:13;;;;;;;6.88;3.50;;;19.10;99.90;;;;;;4980695;28;20047;-78
2023/08/11 07:47:39;;;;;;;5.28;3.42;;;19.10;99.90;;;;;;4992107;28;20037;-78
2023/08/11 07:50:06;;;;;;;6.30;3.40;;;19.20;99.90;;;;;;4968146;28;20113;-78
2023/08/11 07:52:32;;;;;;;6.35;3.72;;;19.30;99.90;;;;;;4976298;28;20034;-78
2023/08/11 07:54:58;;;;;;;4.90;3.38;;;19.30;99.90;;;;;;4961278;28;20034;-78
2023/08/11 07:57:23;;;;;;;4.70;3.40;;;19.40;99.90;;;;;;4989028;28;20461;-78
2023/08/11 07:59:49;;;;;;;6.20;2.90;;;19.40;99.90;;;;;;4993713;28;20022;-78
2023/08/11 08:02:15;;;;;;;7.72;3.20;;;19.50;99.90;;;;;;4984290;28;20396;-78
2023/08/11 08:04:42;;;;;;;4.40;3.22;;;19.50;99.90;;;;;;4979435;28;20037;-78
2023/08/11 08:07:08;;;;;;;5.32;3.20;;;19.60;99.90;;;;;;4979691;28;20035;-78
2023/08/11 08:09:34;;;;;;;6.20;3.17;;;19.70;99.90;;;;;;4987193;28;20108;-78
2023/08/11 08:12:01;;;;;;;5.68;3.08;;;19.70;99.90;;;;;;4984733;28;20030;-77
2023/08/11 08:14:28;;;;;;;6.25;3.22;;;19.70;99.90;;;;;;4974107;28;20456;-78
2023/08/11 08:16:53;;;;;;;4.72;3.00;;;19.80;99.90;;;;;;4977410;28;20047;-78
2023/08/11 08:19:20;;;;;;;4.90;2.90;;;19.90;99.90;;;;;;4990938;28;20023;-78
2023/08/11 08:21:46;;;;;;;6.35;3.17;;;19.90;99.90;;;;;;4985608;28;20027;-81
2023/08/11 08:24:14;;;;;;;4.22;3.03;;;19.90;99.90;;;;;;4983093;28;20030;-77
2023/08/11 08:26:40;;;;;;;6.57;3.70;;;19.90;99.90;;;;;;4974981;28;20097;-77
2023/08/11 08:29:05;;;;;;;5.30;3.13;;;20.00;99.90;;;;;;4972525;28;20030;-77
2023/08/11 08:31:31;;;;;;;3.90;3.08;;;20.00;99.90;;;;;;4972489;28;20390;-77
2023/08/11 08:33:57;;;;;;;3.80;3.08;;;20.00;99.90;;;;;;4983866;28;20026;-77
2023/08/11 08:36:23;;;;;;;5.32;2.70;;;20.00;99.90;;;;;;4962687;28;20043;-77
2023/08/11 08:38:48;;;;;;;4.28;2.70;;;20.10;99.90;;;;;;4991593;28;20475;-81
2023/08/11 08:41:18;;;;;;;4.75;3.10;;;20.20;99.90;;;;;;4959729;28;20113;-76
2023/08/11 08:43:44;;;;;;;7.05;3.10;;;20.20;99.90;;;;;;4966779;28;20400;-77
2023/08/11 08:46:13;;;;;;;5.57;3.13;;;20.20;99.90;;;;;;4984595;28;20022;-80
2023/08/11 08:49:02;;;;;;;6.80;2.78;;;20.40;99.90;;;;;;4979373;28;20034;-79
2023/08/11 08:51:29;;;;;;;4.35;2.90;;;20.40;99.90;;;;;;4988249;28;20467;-78
2023/08/11 08:53:54;;;;;;;4.75;2.65;;;20.50;99.90;;;;;;4989059;28;20030;-83
2023/08/11 08:56:20;;;;;;;5.22;2.65;;;20.60;99.90;;;;;;4982427;28;20042;-82
2023/08/11 08:58:46;;;;;;;5.78;3.03;;;20.60;99.90;;;;;;4993109;28;20463;-80
2023/08/11 09:01:13;;;;;;;4.18;3.08;;;20.70;99.90;;;;;;4997689;28;20034;-83
2023/08/11 09:03:39;;;;;;;7.00;2.90;;;20.90;99.90;;;;;;4990878;28;20018;-82
2023/08/11 09:06:06;;;;;;;7.30;2.70;;;20.90;99.90;;;;;;4993854;28;20031;-79
2023/08/11 09:08:32;;;;;;;4.57;2.92;;;20.90;99.90;;;;;;4987271;28;20126;-79
2023/08/11 09:10:58;;;;;;;6.50;2.92;;;20.90;99.90;;;;;;4989917;28;20101;-78
2023/08/11 09:13:26;;;;;;;4.30;2.85;;;21.00;99.90;;;;;;4992541;28;20113;-78
2023/08/11 09:15:51;;;;;;;5.88;2.58;;;21.00;99.90;;;;;;4992432;28;20484;-78
2023/08/11 09:18:17;;;;;;;4.68;2.80;;;21.10;99.90;;;;;;4977923;28;20113;-77
2023/08/11 09:20:48;;;;;;;5.35;2.88;;;21.10;99.90;;;;;;4981194;28;20034;-77
2023/08/11 09:23:16;;;;;;;4.57;3.00;;;21.10;99.90;;;;;;4985258;28;20027;-78
2023/08/11 09:25:42;;;;;;;5.38;2.83;;;21.10;99.90;;;;;;4985110;28;20117;-77
2023/08/11 09:28:08;;;;;;;3.50;2.50;;;21.20;99.90;;;;;;4983398;28;20065;-77
2023/08/11 09:30:34;;;;;;;4.60;2.60;;;21.30;99.90;;;;;;4972138;28;20654;-77
2023/08/11 09:33:05;;;;;;;6.22;2.85;;;21.40;99.90;;;;;;4992691;28;20391;-78
2023/08/11 09:35:31;;;;;;;5.30;2.60;;;21.50;99.90;;;;;;4959155;28;20043;-79
2023/08/11 09:37:56;;;;;;;5.00;2.50;;;21.50;99.90;;;;;;4968792;28;20034;-82
2023/08/11 09:40:22;;;;;;;5.38;2.72;;;21.50;99.90;;;;;;4986713;28;20026;-79
2023/08/11 09:42:49;;;;;;;3.55;2.47;;;21.50;99.90;;;;;;4995599;28;20030;-77
2023/08/11 09:45:14;;;;;;;3.20;2.30;;;21.60;99.90;;;;;;4975632;28;20499;-77
2023/08/11 09:47:40;;;;;;;5.13;2.63;;;21.60;99.90;;;;;;4968392;28;20022;-78
2023/08/11 09:50:08;;;;;;;5.80;2.47;;;21.70;99.90;;;;;;4976071;28;20035;-78
2023/08/11 09:52:35;;;;;;;3.28;2.35;;;21.70;99.90;;;;;;4988712;28;20026;-78
2023/08/11 09:55:06;;;;;;;5.45;2.40;;;21.70;99.90;;;;;;4995078;28;20036;-78
2023/08/11 09:57:34;;;;;;;2.90;2.37;;;21.70;99.90;;;;;;4989988;28;20080;-78
2023/08/11 10:00:01;;;;;;;2.88;2.40;;;21.80;99.90;;;;;;4985851;28;20027;-78
2023/08/11 10:02:31;;;;;;;3.47;2.53;;;21.80;99.90;;;;;;4971117;28;20717;-78
2023/08/11 10:05:03;;;;;;;5.13;2.13;;;21.80;99.90;;;;;;4989995;28;20438;-78
2023/08/11 10:07:35;;;;;;;4.88;2.45;;;21.80;99.90;;;;;;4989964;28;20311;-78
2023/08/11 10:10:10;;;;;;;6.47;2.60;;;21.80;99.90;;;;;;4988257;28;20030;-78
2023/08/11 10:12:40;;;;;;;4.63;2.42;;;21.90;99.90;;;;;;4974723;28;20018;-78
2023/08/11 10:15:09;;;;;;;5.53;2.50;;;21.80;99.90;;;;;;4986537;28;20038;-78
2023/08/11 10:17:35;;;;;;;3.80;2.10;;;22.00;99.90;;;;;;4990619;28;20029;-78
2023/08/11 10:20:04;;;;;;;4.70;2.50;;;22.20;99.90;;;;;;4994414;28;20554;-78
2023/08/11 10:22:32;;;;;;;4.15;2.38;;;22.20;99.90;;;;;;4977722;28;20058;-78
2023/08/11 10:24:59;;;;;;;3.83;2.38;;;22.20;99.90;;;;;;4988993;28;20038;-78
2023/08/11 10:27:26;;;;;;;5.10;2.53;;;22.20;99.90;;;;;;4988526;28;20452;-78
2023/08/11 10:29:53;;;;;;;6.43;2.70;;;22.30;99.90;;;;;;4967552;28;20388;-80
2023/08/11 10:32:23;;;;;;;2.67;2.47;;;22.30;99.90;;;;;;4971397;28;20092;-78
2023/08/11 10:34:50;;;;;;;3.13;2.47;;;22.40;99.90;;;;;;4985695;28;20478;-79
2023/08/11 10:37:15;;;;;;;4.05;2.40;;;22.50;99.90;;;;;;4989815;28;20191;-78
2023/08/11 10:39:41;;;;;;;2.40;1.85;;;22.50;99.90;;;;;;4986688;28;20541;-78
2023/08/11 10:42:12;;;;;;;3.65;2.60;;;22.60;99.90;;;;;;4959368;28;20023;-78
2023/08/11 10:44:43;;;;;;;4.85;2.88;;;22.50;99.90;;;;;;4973651;28;20065;-79
2023/08/11 10:47:09;;;;;;;5.30;2.40;;;22.50;99.90;;;;;;4991745;28;20043;-78
2023/08/11 10:49:40;;;;;;;4.13;2.80;;;22.50;99.90;;;;;;4979884;28;20022;-80
2023/08/11 10:52:06;;;;;;;2.85;2.28;;;22.50;99.90;;;;;;4994133;28;20124;-78
2023/08/11 10:54:32;;;;;;;4.57;2.75;;;22.60;99.90;;;;;;4986886;28;20479;-78
2023/08/11 10:57:01;;;;;;;5.28;2.70;;;22.60;99.90;;;;;;4991827;28;20490;-79
2023/08/11 10:59:32;;;;;;;4.90;2.70;;;22.60;99.90;;;;;;4985007;28;20031;-78
2023/08/11 11:01:59;;;;;;;4.57;2.60;;;22.90;99.90;;;;;;4967414;28;20022;-79
2023/08/11 11:04:32;;;;;;;5.20;2.60;;;23.10;99.90;;;;;;4960736;28;20039;-78
2023/08/11 11:06:59;;;;;;;6.78;2.65;;;23.10;99.90;;;;;;4992508;28;20045;-79
2023/08/11 11:09:27;;;;;;;5.97;2.80;;;23.10;99.90;;;;;;4977860;28;20106;-78
2023/08/11 11:11:54;;;;;;;4.72;2.80;;;23.20;99.90;;;;;;4957985;28;20034;-79
2023/08/11 11:14:19;;;;;;;4.80;2.88;;;23.20;99.90;;;;;;4960219;28;20031;-78
2023/08/11 11:16:46;;;;;;;4.63;2.40;;;23.20;99.90;;;;;;4957547;28;20035;-80
2023/08/11 11:19:11;;;;;;;4.28;2.50;;;23.30;99.90;;;;;;4962858;28;20559;-79
2023/08/11 11:21:41;;;;;;;4.15;3.15;;;23.20;99.90;;;;;;4980562;28;20113;-79
2023/08/11 11:24:08;;;;;;;3.67;2.38;;;23.10;99.90;;;;;;4976134;28;20491;-79
2023/08/11 11:26:34;;;;;;;5.68;2.40;;;23.20;99.90;;;;;;4961158;28;20058;-79
2023/08/11 11:29:02;;;;;;;4.05;2.55;;;23.20;99.90;;;;;;4993341;28;20065;-79
2023/08/11 11:31:32;;;;;;;5.10;2.47;;;23.50;99.90;;;;;;4988806;28;20077;-79
2023/08/11 11:33:58;;;;;;;4.13;2.88;;;23.60;99.90;;;;;;4973617;28;20471;-79
2023/08/11 11:36:24;;;;;;;3.90;2.75;;;23.80;99.90;;;;;;4976179;28;20046;-79
2023/08/11 11:38:51;;;;;;;4.07;2.50;;;23.90;99.90;;;;;;4977944;28;20031;-79
2023/08/11 11:41:18;;;;;;;5.45;2.42;;;23.90;99.90;;;;;;4988611;28;20022;-78
2023/08/11 11:43:45;;;;;;;3.35;2.30;;;23.80;99.90;;;;;;4981986;28;20038;-80
2023/08/11 11:46:15;;;;;;;2.88;2.50;;;24.00;99.90;;;;;;4982973;28;20038;-79
2023/08/11 11:48:49;;;;;;;5.35;2.67;;;24.20;99.90;;;;;;4957065;28;20034;-79
2023/08/11 11:51:17;;;;;;;2.67;2.22;;;24.20;99.90;;;;;;4957752;28;20078;-79
2023/08/11 11:53:43;;;;;;;3.47;2.13;;;24.20;99.90;;;;;;4965129;28;20023;-79
2023/08/11 11:56:14;;;;;;;3.10;2.53;;;24.30;99.90;;;;;;4981179;28;20047;-79
2023/08/11 11:58:43;;;;;;;4.43;2.42;;;24.30;99.90;;;;;;4980875;28;20027;-80
2023/08/11 12:01:20;;;;;;;3.90;2.30;;;24.30;99.90;;;;;;4975958;28;20077;-79
2023/08/11 12:03:46;;;;;;;6.05;2.65;;;24.40;99.90;;;;;;4993749;28;20555;-79
2023/08/11 12:06:13;;;;;;;3.35;2.28;;;24.40;99.90;;;;;;4992377;28;20034;-80
2023/08/11 12:08:42;;;;;;;4.03;2.70;;;24.40;99.90;;;;;;4977448;28;20622;-79
2023/08/11 12:11:12;;;;;;;4.05;2.50;;;24.40;99.90;;;;;;4974381;28;20027;-79
2023/08/11 12:13:43;;;;;;;5.03;2.55;;;24.50;99.90;;;;;;4980450;28;20029;-79
2023/08/11 12:16:12;;;;;;;3.72;2.10;;;24.70;99.90;;;;;;4992875;28;20109;-80
2023/08/11 12:18:39;;;;;;;4.70;2.90;;;24.80;99.90;;;;;;4983102;28;20032;-81
2023/08/11 12:21:04;;;;;;;3.03;2.33;;;24.90;99.90;;;;;;4991456;28;20062;-80
2023/08/11 12:23:31;;;;;;;3.13;2.28;;;25.10;99.90;;;;;;4972898;28;20389;-80
2023/08/11 12:25:57;;;;;;;2.50;2.15;;;25.30;99.90;;;;;;4981129;28;20073;-80
2023/08/11 12:28:23;;;;;;;3.38;2.38;;;25.40;99.90;;;;;;4988851;28;20050;-80
2023/08/11 12:30:49;;;;;;;3.38;2.50;;;25.50;99.90;;;;;;4974480;28;20038;-79
2023/08/11 12:33:15;;;;;;;6.32;2.00;;;25.60;99.90;;;;;;4964188;28;20454;-79
2023/08/11 12:35:42;;;;;;;3.47;2.20;;;25.70;99.90;;;;;;4988513;28;20030;-79
2023/08/11 12:38:12;;;;;;;2.90;2.30;;;25.80;99.90;;;;;;4991618;28;20035;-80
2023/08/11 12:40:45;;;;;;;6.50;2.72;;;25.90;99.90;;;;;;4988005;28;20022;-79
2023/08/11 12:43:12;;;;;;;4.30;2.50;;;26.00;99.90;;;;;;4990494;28;20030;-79
2023/08/11 12:45:40;;;;;;;5.43;2.22;;;26.20;99.90;;;;;;4956618;28;20118;-79